createdAt,value
2022-11-16T00:00:35.337Z,19.93
2022-11-16T00:03:03.380Z,26.00
2022-11-16T00:05:32.623Z,23.27
2022-11-16T00:08:00.436Z,24.97
2022-11-16T00:10:28.221Z,22.03
2022-11-16T00:12:56.071Z,25.47
2022-11-16T00:15:23.917Z,24.60
2022-11-16T00:17:51.762Z,22.97
2022-11-16T00:20:19.647Z,24.03
2022-11-16T00:22:48.870Z,21.73
2022-11-16T00:25:16.858Z,22.33
2022-11-16T00:27:44.687Z,21.60
2022-11-16T00:30:13.602Z,19.93
2022-11-16T00:32:41.623Z,25.00
2022-11-16T00:35:10.106Z,25.47
2022-11-16T00:37:37.973Z,28.40
2022-11-16T00:40:09.079Z,34.40
2022-11-16T00:42:36.936Z,24.73
2022-11-16T00:45:05.289Z,23.70
2022-11-16T00:47:32.998Z,29.13
2022-11-16T00:50:00.901Z,22.20
2022-11-16T00:52:28.840Z,25.13
2022-11-16T00:54:57.004Z,33.67
2022-11-16T00:57:26.370Z,25.33
2022-11-16T00:59:54.378Z,27.83
2022-11-16T01:02:22.328Z,31.10
2022-11-16T01:04:50.232Z,30.30
2022-11-16T01:07:18.194Z,29.50
2022-11-16T01:09:46.179Z,29.80
2022-11-16T01:12:13.327Z,27.93
2022-11-16T01:14:45.137Z,23.70
2022-11-16T01:17:12.987Z,22.17
2022-11-16T01:19:41.698Z,21.87
2022-11-16T01:22:09.872Z,26.83
2022-11-16T01:24:37.849Z,31.37
2022-11-16T01:27:05.775Z,28.00
2022-11-16T01:29:33.726Z,30.27
2022-11-16T01:32:03.052Z,25.53
2022-11-16T01:34:31.014Z,27.07
2022-11-16T01:36:58.949Z,34.83
2022-11-16T01:39:26.921Z,32.20
2022-11-16T01:41:54.894Z,22.67
2022-11-16T01:45:08.526Z,23.83
2022-11-16T01:47:37.725Z,27.67
2022-11-16T01:50:10.566Z,27.47
2022-11-16T01:52:43.892Z,27.53
2022-11-16T01:55:12.300Z,25.27
2022-11-16T01:57:44.758Z,28.70
2022-11-16T02:00:14.386Z,26.90
2022-11-16T02:02:43.863Z,20.27
2022-11-16T02:05:14.092Z,27.87
2022-11-16T02:08:20.870Z,30.20
2022-11-16T02:11:02.759Z,29.43
2022-11-16T02:13:41.577Z,23.33
2022-11-16T02:16:19.870Z,26.40
2022-11-16T02:18:56.972Z,29.47
2022-11-16T02:21:44.670Z,22.70
2022-11-16T02:24:40.086Z,25.60
2022-11-16T02:27:35.236Z,25.40
2022-11-16T02:30:06.160Z,26.00
2022-11-16T02:32:39.005Z,23.77
2022-11-16T02:35:13.000Z,31.97
2022-11-16T02:37:45.440Z,23.53
2022-11-16T02:40:16.320Z,29.57
2022-11-16T02:42:49.347Z,30.93
2022-11-16T02:45:23.228Z,32.07
2022-11-16T02:47:55.650Z,25.13
2022-11-16T02:50:24.410Z,25.93
2022-11-16T02:52:52.319Z,31.07
2022-11-16T02:55:20.318Z,30.00
2022-11-16T02:57:54.486Z,28.03
2022-11-16T03:00:26.277Z,31.10
2022-11-16T03:03:02.922Z,33.77
2022-11-16T03:05:36.036Z,27.10
2022-11-16T03:08:13.456Z,33.90
2022-11-16T03:11:00.142Z,29.20
2022-11-16T03:13:31.214Z,23.03
2022-11-16T03:16:04.017Z,34.60
2022-11-16T03:18:32.371Z,29.23
2022-11-16T03:21:10.759Z,27.00
2022-11-16T03:23:39.227Z,30.70
2022-11-16T03:26:11.070Z,25.93
2022-11-16T03:28:48.682Z,27.93
2022-11-16T03:31:23.772Z,25.90
2022-11-16T03:33:56.292Z,27.97
2022-11-16T03:36:28.642Z,37.87
2022-11-16T03:39:00.808Z,35.97
2022-11-16T03:41:30.918Z,34.57
2022-11-16T03:44:00.460Z,31.23
2022-11-16T03:46:30.346Z,30.27
2022-11-16T03:48:59.534Z,23.80
2022-11-16T03:51:27.719Z,28.00
2022-11-16T03:53:55.743Z,27.87
2022-11-16T03:56:23.776Z,32.07
2022-11-16T03:58:51.648Z,28.93
2022-11-16T04:01:19.701Z,33.47
2022-11-16T04:03:49.041Z,28.93
2022-11-16T04:06:34.675Z,28.70
2022-11-16T04:09:19.972Z,29.50
2022-11-16T04:12:05.563Z,27.93
2022-11-16T04:14:51.290Z,30.90
2022-11-16T04:17:38.486Z,26.17
2022-11-16T04:20:28.662Z,28.87
2022-11-16T04:23:18.684Z,30.10
2022-11-16T04:25:48.694Z,26.50
2022-11-16T04:28:17.534Z,27.47
2022-11-16T04:31:06.214Z,37.87
2022-11-16T04:33:52.480Z,36.13
2022-11-16T04:36:39.395Z,28.40
2022-11-16T04:39:07.375Z,32.17
2022-11-16T04:41:53.477Z,36.43
2022-11-16T04:44:25.903Z,25.73
2022-11-16T04:47:07.957Z,24.73
2022-11-16T04:49:36.267Z,30.40
2022-11-16T04:52:05.815Z,33.97
2022-11-16T04:54:33.789Z,28.37
2022-11-16T04:57:01.706Z,28.73
2022-11-16T04:59:29.727Z,36.53
2022-11-16T05:02:09.933Z,34.30
2022-11-16T05:04:38.164Z,28.13
2022-11-16T05:07:11.205Z,40.27
2022-11-16T05:09:42.823Z,29.03
2022-11-16T05:12:11.202Z,36.80
2022-11-16T05:14:39.193Z,38.30
2022-11-16T05:17:07.254Z,31.87
2022-11-16T05:19:53.220Z,30.27
2022-11-16T05:22:22.725Z,34.17
2022-11-16T05:24:51.761Z,35.23
2022-11-16T05:27:21.257Z,35.87
2022-11-16T05:29:50.094Z,36.37
2022-11-16T05:32:19.016Z,30.03
2022-11-16T05:34:47.245Z,39.10
2022-11-16T05:37:16.021Z,43.13
2022-11-16T05:39:45.334Z,33.47
2022-11-16T05:42:13.374Z,33.63
2022-11-16T05:44:41.523Z,37.43
2022-11-16T05:47:09.647Z,39.53
2022-11-16T05:49:37.886Z,36.83
2022-11-16T05:52:05.715Z,35.87
2022-11-16T05:54:33.664Z,34.67
2022-11-16T05:57:02.862Z,37.67
2022-11-16T05:59:30.948Z,38.50
2022-11-16T06:01:59.003Z,35.40
2022-11-16T06:04:27.004Z,42.93
2022-11-16T06:06:55.053Z,36.67
2022-11-16T06:09:23.008Z,49.27
2022-11-16T06:11:51.151Z,35.00
2022-11-16T06:14:20.444Z,34.30
2022-11-16T06:16:48.377Z,32.00
2022-11-16T06:19:16.277Z,35.83
2022-11-16T06:21:44.382Z,39.07
2022-11-16T06:24:12.316Z,41.60
2022-11-16T06:26:40.392Z,39.23
2022-11-16T06:29:08.375Z,39.43
2022-11-16T06:31:37.702Z,41.37
2022-11-16T06:34:05.929Z,35.87
2022-11-16T06:36:33.856Z,33.13
2022-11-16T06:39:02.026Z,48.07
2022-11-16T06:41:30.299Z,35.53
2022-11-16T06:43:58.143Z,44.60
2022-11-16T06:46:26.257Z,42.57
2022-11-16T06:48:56.979Z,40.73
2022-11-16T06:51:25.484Z,42.43
2022-11-16T06:53:53.347Z,31.03
2022-11-16T06:56:21.333Z,44.00
2022-11-16T06:58:53.260Z,37.33
2022-11-16T07:01:21.505Z,40.77
2022-11-16T07:03:49.439Z,35.53
2022-11-16T07:06:18.759Z,47.60
2022-11-16T07:08:46.665Z,37.90
2022-11-16T07:11:14.656Z,42.47
2022-11-16T07:13:42.478Z,43.93
2022-11-16T07:16:12.469Z,44.57
2022-11-16T07:18:42.391Z,35.47
2022-11-16T07:21:12.103Z,37.90
2022-11-16T07:23:41.536Z,35.60
2022-11-16T07:26:10.457Z,42.33
2022-11-16T07:28:42.064Z,42.37
2022-11-16T07:31:14.415Z,38.73
2022-11-16T07:33:42.897Z,44.50
2022-11-16T07:36:13.147Z,44.20
2022-11-16T07:38:42.993Z,40.10
2022-11-16T07:41:12.886Z,40.37
2022-11-16T07:43:40.939Z,42.47
2022-11-16T07:48:59.429Z,36.47
2022-11-16T07:51:27.613Z,43.93
2022-11-16T07:53:57.042Z,47.90
2022-11-16T07:56:25.536Z,38.30
2022-11-16T07:58:53.694Z,36.83
2022-11-16T08:01:21.732Z,48.07
2022-11-16T08:03:53.579Z,37.40
2022-11-16T08:06:24.542Z,43.03
2022-11-16T08:08:58.066Z,50.57
2022-11-16T08:11:28.101Z,46.60
2022-11-16T08:13:57.419Z,50.70
2022-11-16T08:16:25.526Z,40.97
2022-11-16T08:18:53.571Z,42.03
2022-11-16T08:21:21.583Z,49.37
2022-11-16T08:24:06.839Z,45.40
2022-11-16T08:26:36.576Z,42.17
2022-11-16T08:29:04.627Z,58.10
2022-11-16T08:31:32.595Z,54.63
2022-11-16T08:34:01.519Z,44.57
2022-11-16T08:36:29.562Z,42.33
2022-11-16T08:38:58.167Z,45.50
2022-11-16T08:41:25.898Z,43.00
2022-11-16T08:43:55.276Z,54.73
2022-11-16T08:46:23.302Z,43.57
2022-11-16T08:48:55.875Z,48.63
2022-11-16T08:51:24.598Z,59.03
2022-11-16T08:53:56.638Z,50.47
2022-11-16T08:56:26.329Z,51.97
2022-11-16T08:58:58.922Z,54.70
2022-11-16T09:01:29.362Z,45.10
2022-11-16T09:03:57.846Z,45.37
2022-11-16T09:06:27.178Z,40.63
2022-11-16T09:08:57.073Z,46.73
2022-11-16T09:11:26.874Z,46.50
2022-11-16T09:13:57.004Z,54.83
2022-11-16T09:16:25.582Z,52.60
2022-11-16T09:18:53.647Z,55.37
2022-11-16T09:21:23.608Z,47.93
2022-11-16T09:23:51.839Z,51.53
2022-11-16T09:26:22.914Z,65.53
2022-11-16T09:28:58.219Z,67.23
2022-11-16T09:31:27.545Z,56.93
2022-11-16T09:34:44.443Z,64.60
2022-11-16T09:37:12.499Z,60.77
2022-11-16T09:39:40.473Z,60.90
2022-11-16T09:42:22.823Z,56.27
2022-11-16T09:45:04.416Z,44.33
2022-11-16T09:47:49.084Z,77.30
2022-11-16T09:50:34.619Z,55.07
2022-11-16T09:53:15.894Z,62.87
2022-11-16T09:55:48.342Z,49.87
2022-11-16T09:58:23.376Z,61.10
2022-11-16T10:00:59.894Z,59.63
2022-11-16T10:03:30.136Z,59.03
2022-11-16T10:06:03.934Z,61.93
2022-11-16T10:08:44.025Z,48.17
2022-11-16T10:11:30.975Z,48.90
2022-11-16T10:14:06.795Z,57.93
2022-11-16T10:16:46.313Z,55.27
2022-11-16T10:19:25.188Z,47.57
2022-11-16T10:21:59.350Z,50.93
2022-11-16T10:24:38.164Z,57.97
2022-11-16T10:27:25.783Z,55.53
2022-11-16T10:30:03.161Z,56.73
2022-11-16T10:32:35.526Z,59.03
2022-11-16T10:35:09.327Z,56.43
2022-11-16T10:37:40.389Z,52.60
2022-11-16T10:40:19.751Z,48.47
2022-11-16T10:42:54.926Z,49.60
2022-11-16T10:45:27.393Z,58.20
2022-11-16T10:48:01.745Z,46.97
2022-11-16T10:50:38.560Z,50.30
2022-11-16T10:53:07.048Z,39.57
2022-11-16T10:55:35.153Z,49.37
2022-11-16T10:58:05.363Z,49.90
2022-11-16T11:00:44.001Z,62.23
2022-11-16T11:03:13.584Z,49.37
2022-11-16T11:05:52.595Z,45.07
2022-11-16T11:08:30.540Z,48.17
2022-11-16T11:11:23.544Z,48.60
2022-11-16T11:14:05.268Z,41.40
2022-11-16T11:16:33.441Z,50.03
2022-11-16T11:19:25.432Z,40.60
2022-11-16T11:21:58.443Z,46.30
2022-11-16T11:24:45.004Z,36.70
2022-11-16T11:27:14.108Z,36.37
2022-11-16T11:29:44.022Z,25.97
2022-11-16T11:32:22.397Z,32.30
2022-11-16T11:34:54.890Z,35.03
2022-11-16T11:37:28.683Z,31.90
2022-11-16T11:40:24.638Z,38.23
2022-11-16T11:42:56.297Z,29.30
2022-11-16T11:45:31.904Z,32.50
2022-11-16T11:48:02.898Z,25.20
2022-11-16T11:50:44.156Z,26.27
2022-11-16T11:53:22.075Z,26.40
2022-11-16T11:55:54.049Z,24.87
2022-11-16T11:58:22.837Z,24.53
2022-11-16T12:01:08.194Z,31.13
2022-11-16T12:03:53.905Z,22.47
2022-11-16T12:06:30.759Z,28.67
2022-11-16T12:09:09.287Z,34.10
2022-11-16T12:11:51.325Z,26.80
2022-11-16T12:14:33.383Z,30.67
2022-11-16T12:17:08.109Z,30.53
2022-11-16T12:19:59.622Z,27.90
2022-11-16T12:23:01.098Z,26.17
2022-11-16T12:25:41.641Z,29.40
2022-11-16T12:28:21.535Z,25.27
2022-11-16T12:31:00.551Z,25.73
2022-11-16T12:33:40.181Z,34.07
2022-11-16T12:36:16.954Z,21.83
2022-11-16T12:39:00.375Z,24.90
2022-11-16T12:42:01.005Z,26.97
2022-11-16T12:44:41.218Z,26.17
2022-11-16T12:47:17.941Z,32.03
2022-11-16T12:50:04.109Z,26.13
2022-11-16T12:52:50.445Z,33.93
2022-11-16T12:55:29.898Z,27.90
2022-11-16T12:58:15.122Z,24.33
2022-11-16T13:00:53.641Z,26.43
2022-11-16T13:03:27.355Z,30.17
2022-11-16T13:05:59.037Z,31.27
2022-11-16T13:08:53.458Z,23.63
2022-11-16T13:11:26.790Z,28.10
2022-11-16T13:13:59.540Z,28.63
2022-11-16T13:16:30.098Z,28.43
2022-11-16T13:18:59.395Z,28.00
2022-11-16T13:21:38.256Z,28.87
2022-11-16T13:24:47.941Z,29.10
2022-11-16T13:27:35.530Z,19.17
2022-11-16T13:30:15.034Z,29.17
2022-11-16T13:32:58.897Z,23.57
2022-11-16T13:35:27.771Z,28.20
2022-11-16T13:37:55.839Z,21.83
2022-11-16T13:40:27.248Z,26.13
2022-11-16T13:43:15.262Z,25.40
2022-11-16T13:45:51.198Z,30.17
2022-11-16T13:48:21.721Z,25.47
2022-11-16T13:50:53.330Z,29.87
2022-11-16T13:54:25.188Z,19.93
2022-11-16T13:56:27.198Z,21.13
2022-11-16T13:58:59.573Z,26.97
2022-11-16T14:01:58.537Z,24.60
2022-11-16T14:04:42.307Z,23.70
2022-11-16T14:07:30.642Z,26.03
2022-11-16T14:09:59.351Z,29.27
2022-11-16T14:12:58.114Z,21.03
2022-11-16T14:15:33.019Z,24.10
2022-11-16T14:18:32.840Z,23.70
2022-11-16T14:21:06.893Z,25.67
2022-11-16T14:24:02.753Z,23.03
2022-11-16T14:26:45.324Z,23.77
2022-11-16T14:29:43.464Z,28.13
2022-11-16T14:32:21.803Z,23.40
2022-11-16T14:34:52.845Z,29.93
2022-11-16T14:37:33.433Z,23.63
2022-11-16T14:40:05.775Z,21.67
2022-11-16T14:42:48.354Z,29.23
2022-11-16T14:45:27.294Z,25.77
2022-11-16T14:48:01.572Z,25.73
2022-11-16T14:50:30.324Z,31.23
2022-11-16T14:53:02.293Z,27.13
2022-11-16T14:55:30.367Z,24.50
2022-11-16T14:58:17.651Z,24.30
2022-11-16T15:00:54.864Z,29.00
2022-11-16T15:03:26.609Z,25.27
2022-11-16T15:05:58.407Z,21.43
2022-11-16T15:08:32.178Z,26.13
2022-11-16T15:11:01.017Z,27.37
2022-11-16T15:13:29.057Z,23.00
2022-11-16T15:16:11.217Z,29.17
2022-11-16T15:18:40.438Z,30.60
2022-11-16T15:21:23.261Z,34.43
2022-11-16T15:24:15.504Z,31.97
2022-11-16T15:26:40.251Z,22.30
2022-11-16T15:29:16.045Z,22.50
2022-11-16T15:31:44.465Z,22.37
2022-11-16T15:34:16.953Z,27.20
2022-11-16T15:36:45.288Z,28.53
2022-11-16T15:39:16.677Z,27.00
2022-11-16T15:41:46.075Z,28.97
2022-11-16T15:44:17.277Z,27.33
2022-11-16T15:46:48.146Z,21.17
2022-11-16T15:49:27.579Z,27.50
2022-11-16T15:51:55.656Z,27.63
2022-11-16T15:54:25.533Z,23.70
2022-11-16T15:56:56.009Z,25.07
2022-11-16T15:59:28.585Z,25.73
2022-11-16T16:01:57.382Z,20.93
2022-11-16T16:04:27.762Z,18.07
2022-11-16T16:06:56.815Z,24.90
2022-11-16T16:09:29.074Z,22.53
2022-11-16T16:12:12.021Z,19.40
2022-11-16T16:14:40.029Z,21.70
2022-11-16T16:17:09.438Z,27.67
2022-11-16T16:19:42.926Z,20.50
2022-11-16T16:22:16.320Z,25.23
2022-11-16T16:24:45.757Z,20.00
2022-11-16T16:27:16.234Z,17.30
2022-11-16T16:29:44.665Z,21.87
2022-11-16T16:32:23.613Z,17.23
2022-11-16T16:34:53.365Z,14.17
2022-11-16T16:37:21.615Z,18.97
2022-11-16T16:39:49.740Z,17.17
2022-11-16T16:42:18.633Z,16.30
2022-11-16T16:44:47.880Z,13.80
2022-11-16T16:47:16.562Z,15.63
2022-11-16T16:49:44.843Z,16.67
2022-11-16T16:52:14.336Z,16.80
2022-11-16T16:54:42.686Z,16.77
2022-11-16T16:57:14.828Z,12.43
2022-11-16T16:59:45.280Z,10.97
2022-11-16T17:02:13.952Z,14.17
2022-11-16T17:04:43.967Z,16.87
2022-11-16T17:07:13.671Z,16.27
2022-11-16T17:09:41.623Z,17.03
2022-11-16T17:12:10.820Z,16.03
2022-11-16T17:14:38.851Z,11.57
2022-11-16T17:17:06.828Z,10.43
2022-11-16T17:19:34.958Z,14.50
2022-11-16T17:22:03.041Z,14.17
2022-11-16T17:24:32.433Z,11.43
2022-11-16T17:27:00.416Z,14.40
2022-11-16T17:29:28.622Z,13.50
2022-11-16T17:31:56.726Z,12.03
2022-11-16T17:34:24.791Z,12.63
2022-11-16T17:36:53.028Z,13.77
2022-11-16T17:39:21.100Z,12.87
2022-11-16T17:41:51.266Z,14.23
2022-11-16T17:44:21.943Z,13.70
2022-11-16T17:46:51.450Z,14.53
2022-11-16T17:49:19.500Z,14.73
2022-11-16T17:51:47.547Z,12.93
2022-11-16T17:54:15.659Z,14.43
2022-11-16T17:56:44.022Z,15.03
2022-11-16T17:59:13.421Z,11.97
2022-11-16T18:01:41.552Z,17.40
2022-11-16T18:04:09.619Z,14.57
2022-11-16T18:06:37.754Z,14.33
2022-11-16T18:09:05.919Z,15.97
2022-11-16T18:11:33.937Z,15.70
2022-11-16T18:14:05.529Z,13.10
2022-11-16T18:16:35.320Z,16.40
2022-11-16T18:19:05.154Z,10.80
2022-11-16T18:21:34.210Z,13.97
2022-11-16T18:24:02.912Z,15.10
2022-11-16T18:26:30.836Z,12.43
2022-11-16T18:28:58.731Z,16.67
2022-11-16T18:31:27.138Z,11.40
2022-11-16T18:33:56.674Z,9.97
2022-11-16T18:36:24.782Z,17.90
2022-11-16T18:38:52.848Z,9.27
2022-11-16T18:41:22.735Z,8.77
2022-11-16T18:43:52.446Z,9.80
2022-11-16T18:46:21.646Z,11.53
2022-11-16T18:48:49.681Z,14.70
2022-11-16T18:51:20.046Z,9.73
2022-11-16T18:53:48.203Z,11.97
2022-11-16T18:56:16.684Z,10.83
2022-11-16T18:58:53.104Z,12.27
2022-11-16T19:01:23.581Z,12.80
2022-11-16T19:03:52.634Z,11.33
2022-11-16T19:06:23.143Z,11.33
2022-11-16T19:09:01.091Z,13.63
2022-11-16T19:11:29.612Z,9.53
2022-11-16T19:14:00.614Z,11.97
2022-11-16T19:16:28.609Z,11.67
2022-11-16T19:18:56.861Z,9.83
2022-11-16T19:21:26.426Z,12.20
2022-11-16T19:23:56.353Z,11.60
2022-11-16T19:26:26.254Z,11.57
2022-11-16T19:28:55.444Z,12.27
2022-11-16T19:31:25.517Z,13.03
2022-11-16T19:33:58.334Z,13.13
2022-11-16T19:36:29.652Z,10.23
2022-11-16T19:38:57.739Z,11.80
2022-11-16T19:41:27.089Z,12.53
2022-11-16T19:43:59.114Z,12.73
2022-11-16T19:46:28.385Z,11.17
2022-11-16T19:48:57.234Z,7.97
2022-11-16T19:51:28.220Z,9.33
2022-11-16T19:53:56.864Z,11.13
2022-11-16T19:56:25.574Z,11.30
2022-11-16T19:58:53.784Z,11.97
2022-11-16T20:01:23.610Z,10.53
2022-11-16T20:03:51.741Z,9.50
2022-11-16T20:06:22.119Z,11.77
2022-11-16T20:08:53.160Z,10.17
2022-11-16T20:11:22.653Z,9.00
2022-11-16T20:13:52.482Z,10.40
2022-11-16T20:16:23.384Z,10.03
2022-11-16T20:18:52.459Z,13.53
2022-11-16T20:21:23.736Z,14.43
2022-11-16T20:23:54.253Z,12.37
2022-11-16T20:26:22.990Z,10.60
2022-11-16T20:28:52.526Z,10.77
2022-11-16T20:31:22.438Z,14.57
2022-11-16T20:33:55.016Z,11.43
2022-11-16T20:36:24.159Z,11.33
2022-11-16T20:38:53.869Z,11.90
2022-11-16T20:41:23.439Z,11.43
2022-11-16T20:43:52.984Z,13.90
2022-11-16T20:46:22.539Z,9.47
2022-11-16T20:48:51.060Z,15.10
2022-11-16T20:51:20.461Z,14.73
2022-11-16T20:53:49.480Z,12.70
2022-11-16T20:56:20.244Z,12.60
2022-11-16T20:58:48.782Z,15.27
2022-11-16T21:01:18.757Z,12.63
2022-11-16T21:03:47.104Z,9.83
2022-11-16T21:06:16.021Z,11.90
2022-11-16T21:08:44.063Z,11.93
2022-11-16T21:11:12.975Z,10.60
2022-11-16T21:14:00.164Z,11.53
2022-11-16T21:16:28.110Z,11.47
2022-11-16T21:18:56.131Z,10.53
2022-11-16T21:21:25.194Z,10.97
2022-11-16T21:23:54.991Z,9.17
2022-11-16T21:26:24.459Z,11.17
2022-11-16T21:28:54.098Z,12.53
2022-11-16T21:31:25.545Z,9.53
2022-11-16T21:33:54.827Z,8.83
2022-11-16T21:36:24.441Z,9.33
2022-11-16T21:38:52.815Z,13.57
2022-11-16T21:41:22.430Z,7.53
2022-11-16T21:43:50.772Z,10.87
2022-11-16T21:46:22.787Z,11.80
2022-11-16T21:48:50.994Z,9.93
2022-11-16T21:51:20.259Z,12.30
2022-11-16T21:53:48.332Z,8.33
2022-11-16T21:56:17.791Z,8.50
2022-11-16T21:58:46.569Z,9.53
2022-11-16T22:01:16.574Z,8.40
2022-11-16T22:03:46.299Z,8.57
2022-11-16T22:06:33.029Z,9.27
2022-11-16T22:09:01.425Z,9.23
2022-11-16T22:11:29.547Z,10.70
2022-11-16T22:13:57.543Z,9.83
2022-11-16T22:16:25.547Z,10.57
2022-11-16T22:18:54.945Z,10.37
2022-11-16T22:21:23.074Z,9.70
2022-11-16T22:23:51.085Z,10.70
2022-11-16T22:26:19.293Z,11.43
2022-11-16T22:28:47.312Z,10.37
2022-11-16T22:31:16.148Z,10.53
2022-11-16T22:33:44.144Z,9.67
2022-11-16T22:36:13.931Z,10.57
2022-11-16T22:38:41.954Z,9.47
2022-11-16T22:41:10.701Z,7.63
2022-11-16T22:43:39.044Z,9.63
2022-11-16T22:46:07.411Z,9.13
2022-11-16T22:48:37.332Z,8.83
2022-11-16T22:51:07.889Z,8.20
2022-11-16T22:53:37.767Z,7.03
2022-11-16T22:56:07.801Z,6.93
2022-11-16T22:58:36.291Z,7.87
2022-11-16T23:01:04.762Z,8.80
2022-11-16T23:03:33.247Z,10.40
2022-11-16T23:06:01.664Z,8.70
2022-11-16T23:08:29.912Z,6.53
2022-11-16T23:11:21.905Z,11.87
2022-11-16T23:14:08.032Z,9.80
2022-11-16T23:16:36.770Z,7.73
2022-11-16T23:19:25.085Z,8.80
2022-11-16T23:22:10.891Z,7.20
2022-11-16T23:24:56.193Z,8.17
2022-11-16T23:27:32.408Z,6.73
2022-11-16T23:30:04.522Z,11.10
2022-11-16T23:32:36.063Z,7.80
2022-11-16T23:35:04.174Z,11.63
2022-11-16T23:37:32.117Z,10.60
2022-11-16T23:40:00.284Z,8.37
2022-11-16T23:42:46.957Z,7.53
2022-11-16T23:45:15.440Z,7.60
2022-11-16T23:47:43.487Z,6.30
2022-11-16T23:50:11.542Z,6.80
2022-11-16T23:52:39.580Z,10.50
2022-11-16T23:55:08.572Z,9.47
2022-11-16T23:57:38.049Z,10.27
